createdAt,value
2018-12-11T00:00:46.204Z,5.48
2018-12-11T00:01:46.198Z,5.48
2018-12-11T00:02:46.212Z,5.43
2018-12-11T00:03:46.192Z,5.38
2018-12-11T00:04:46.190Z,5.40
2018-12-11T00:05:46.173Z,5.48
2018-12-11T00:06:46.149Z,5.43
2018-12-11T00:07:46.153Z,5.41
2018-12-11T00:08:46.153Z,5.45
2018-12-11T00:09:46.128Z,5.35
2018-12-11T00:10:46.143Z,5.37
2018-12-11T00:11:46.104Z,5.37
2018-12-11T00:12:46.131Z,5.37
2018-12-11T00:13:46.090Z,5.37
2018-12-11T00:14:46.093Z,5.34
2018-12-11T00:15:46.103Z,5.46
2018-12-11T00:16:46.092Z,5.37
2018-12-11T00:17:46.058Z,5.31
2018-12-11T00:18:46.082Z,5.35
2018-12-11T00:19:46.051Z,5.35
2018-12-11T00:20:46.036Z,5.34
2018-12-11T00:21:46.038Z,5.34
2018-12-11T00:22:46.021Z,5.31
2018-12-11T00:23:46.004Z,5.32
2018-12-11T00:24:45.986Z,5.22
2018-12-11T00:25:45.985Z,5.22
2018-12-11T00:26:45.975Z,5.28
2018-12-11T00:27:45.978Z,5.32
2018-12-11T00:28:45.953Z,5.37
2018-12-11T00:29:45.974Z,5.37
2018-12-11T00:30:45.990Z,5.34
2018-12-11T00:31:45.917Z,5.35
2018-12-11T00:32:45.917Z,5.35
2018-12-11T00:33:45.927Z,5.35
2018-12-11T00:34:45.922Z,5.35
2018-12-11T00:35:45.892Z,5.38
2018-12-11T00:36:45.904Z,5.46
2018-12-11T00:37:45.900Z,5.38
2018-12-11T00:38:45.865Z,5.40
2018-12-11T00:39:45.863Z,5.45
2018-12-11T00:43:24.022Z,5.48
2018-12-11T00:44:23.963Z,5.45
2018-12-11T00:45:23.970Z,5.41
2018-12-11T00:46:23.969Z,5.45
2018-12-11T00:47:23.948Z,5.45
2018-12-11T00:48:23.939Z,5.43
2018-12-11T00:49:23.909Z,5.48
2018-12-11T00:50:23.938Z,5.43
2018-12-11T00:51:23.886Z,5.46
2018-12-11T00:52:23.878Z,5.49
2018-12-11T00:53:23.868Z,5.46
2018-12-11T00:54:23.878Z,5.45
2018-12-11T00:55:23.865Z,5.41
2018-12-11T00:56:23.904Z,5.45
2018-12-11T00:57:23.844Z,5.49
2018-12-11T00:58:23.824Z,5.38
2018-12-11T00:59:23.893Z,5.53
2018-12-11T01:00:23.823Z,5.55
2018-12-11T01:01:33.134Z,5.53
2018-12-11T01:03:28.798Z,5.53
2018-12-11T01:04:28.305Z,5.52
2018-12-11T01:05:28.366Z,5.52
2018-12-11T01:06:28.239Z,5.52
2018-12-11T01:07:28.251Z,5.43
2018-12-11T01:08:28.208Z,5.50
2018-12-11T01:09:28.220Z,5.56
2018-12-11T01:10:28.199Z,5.60
2018-12-11T03:14:20.044Z,5.12
2018-12-11T03:15:19.976Z,5.16
2018-12-11T03:17:24.553Z,5.17
2018-12-11T03:18:24.495Z,5.10
2018-12-11T03:20:29.023Z,5.16
2018-12-11T03:21:28.931Z,5.14
2018-12-11T03:22:28.918Z,5.13
2018-12-11T03:23:28.985Z,5.12
2018-12-11T03:24:28.870Z,5.12
2018-12-11T03:25:28.848Z,5.16
2018-12-11T03:26:28.884Z,5.13
2018-12-11T03:27:28.863Z,5.13
2018-12-11T03:28:28.828Z,5.22
2018-12-11T03:31:01.004Z,5.17
2018-12-11T03:32:00.950Z,5.16
2018-12-11T03:33:00.996Z,5.10
2018-12-11T03:34:00.924Z,5.07
2018-12-11T03:35:00.979Z,5.12
2018-12-11T03:36:00.896Z,4.99
2018-12-11T03:37:00.861Z,5.01
2018-12-11T03:38:00.878Z,5.05
2018-12-11T03:39:00.869Z,5.05
2018-12-11T03:40:00.859Z,5.07
2018-12-11T03:41:00.827Z,5.07
2018-12-11T03:42:00.830Z,5.09
2018-12-11T03:43:00.800Z,5.04
2018-12-11T03:44:00.792Z,4.98
2018-12-11T03:45:00.791Z,5.14
2018-12-11T03:46:00.799Z,5.07
2018-12-11T03:47:00.795Z,4.99
2018-12-11T03:48:00.778Z,4.98
2018-12-11T03:49:00.747Z,5.05
2018-12-11T03:50:10.008Z,4.92
2018-12-11T03:52:03.391Z,5.04
2018-12-11T03:52:54.142Z,4.98
2018-12-11T03:53:54.169Z,5.07
2018-12-11T03:54:54.129Z,4.95
2018-12-11T03:55:54.107Z,5.04
2018-12-11T03:56:54.123Z,5.05
2018-12-11T03:57:54.097Z,4.98
2018-12-11T03:58:54.066Z,4.96
2018-12-11T03:59:54.060Z,5.04
2018-12-11T04:00:54.121Z,5.14
2018-12-11T04:01:54.063Z,4.96
2018-12-11T04:02:54.032Z,5.12
2018-12-11T04:03:54.069Z,5.01
2018-12-11T04:04:54.010Z,5.02
2018-12-11T04:05:54.036Z,4.98
2018-12-11T04:06:54.062Z,4.94
2018-12-11T04:07:54.014Z,5.02
2018-12-11T04:08:53.998Z,4.96
2018-12-11T04:09:53.971Z,4.98
2018-12-11T04:10:53.972Z,4.96
2018-12-11T04:11:53.976Z,4.92
2018-12-11T04:12:53.959Z,5.04
2018-12-11T04:13:53.977Z,4.95
2018-12-11T04:14:53.969Z,4.96
2018-12-11T04:15:53.953Z,4.96
2018-12-11T04:16:53.922Z,4.94
2018-12-11T04:17:53.919Z,4.94
2018-12-11T04:18:53.912Z,4.99
2018-12-11T04:19:53.915Z,4.98
2018-12-11T04:20:53.933Z,4.80
2018-12-11T04:21:53.902Z,4.86
2018-12-11T04:22:53.840Z,4.88
2018-12-11T04:23:53.828Z,4.94
2018-12-11T04:24:53.825Z,4.84
2018-12-11T04:25:53.813Z,4.80
2018-12-11T04:26:53.826Z,4.79
2018-12-11T04:27:53.788Z,4.80
2018-12-11T04:28:53.812Z,4.86
2018-12-11T04:29:53.801Z,4.83
2018-12-11T04:30:53.756Z,4.73
2018-12-11T04:31:53.755Z,4.67
2018-12-11T04:32:53.811Z,4.69
2018-12-11T04:33:53.731Z,4.67
2018-12-11T04:34:53.728Z,4.76
2018-12-11T04:35:53.754Z,4.70
2018-12-11T04:36:53.720Z,4.65
2018-12-11T04:38:02.541Z,4.67
2018-12-11T04:39:58.199Z,4.61
2018-12-11T04:40:58.191Z,4.75
2018-12-11T04:41:58.177Z,4.65
2018-12-11T04:42:58.234Z,4.69
2018-12-11T04:43:58.135Z,4.58
2018-12-11T04:44:58.110Z,4.58
2018-12-11T04:45:58.125Z,4.55
2018-12-11T04:46:58.115Z,4.55
2018-12-11T04:47:58.137Z,4.73
2018-12-11T04:48:58.094Z,4.64
2018-12-11T04:49:58.080Z,4.64
2018-12-11T04:51:07.044Z,4.70
2018-12-11T04:53:02.574Z,4.72
2018-12-11T04:54:02.511Z,4.57
2018-12-11T04:55:02.501Z,4.51
2018-12-11T04:56:02.480Z,4.58
2018-12-11T04:57:02.519Z,4.57
2018-12-11T04:58:02.534Z,4.64
2018-12-11T04:59:02.468Z,4.57
2018-12-11T05:00:02.472Z,4.58
2018-12-11T05:01:02.436Z,4.57
2018-12-11T05:02:02.448Z,4.52
2018-12-11T05:03:02.449Z,4.57
2018-12-11T05:04:02.407Z,4.47
2018-12-11T05:05:02.401Z,4.51
2018-12-11T05:06:02.395Z,4.57
2018-12-11T05:07:02.388Z,4.54
2018-12-11T05:08:02.359Z,4.50
2018-12-11T05:09:02.354Z,4.52
2018-12-11T05:10:02.358Z,4.47
2018-12-11T05:11:02.369Z,4.51
2018-12-11T05:12:02.334Z,4.50
2018-12-11T05:13:02.366Z,4.50
2018-12-11T05:14:02.318Z,4.54
2018-12-11T05:15:02.335Z,4.46
2018-12-11T05:16:02.283Z,4.50
2018-12-11T05:17:02.345Z,4.51
2018-12-11T05:18:02.263Z,4.51
2018-12-11T05:19:02.266Z,4.51
2018-12-11T05:20:02.313Z,4.51
2018-12-11T05:21:02.230Z,4.52
2018-12-11T05:22:02.250Z,4.46
2018-12-11T05:23:02.254Z,4.51
2018-12-11T05:24:02.221Z,4.50
2018-12-11T05:25:02.212Z,4.44
2018-12-11T05:26:02.204Z,4.50
2018-12-11T05:27:02.197Z,4.40
2018-12-11T05:28:02.166Z,4.39
2018-12-11T05:29:02.156Z,4.46
2018-12-11T05:30:02.139Z,4.47
2018-12-11T05:31:02.216Z,4.52
2018-12-11T05:32:02.150Z,4.37
2018-12-11T05:33:02.152Z,4.42
2018-12-11T05:34:02.127Z,4.39
2018-12-11T05:35:02.109Z,4.40
2018-12-11T05:36:02.112Z,4.36
2018-12-11T05:37:02.085Z,4.43
2018-12-11T05:38:02.070Z,4.42
2018-12-11T05:39:02.078Z,4.40
2018-12-11T05:40:02.109Z,4.43
2018-12-11T05:41:02.058Z,4.50
2018-12-11T05:42:02.024Z,4.39
2018-12-11T05:43:02.078Z,4.43
2018-12-11T05:44:02.005Z,4.43
2018-12-11T05:45:02.021Z,4.39
2018-12-11T05:46:01.985Z,4.33
2018-12-11T05:47:01.970Z,4.33
2018-12-11T05:48:01.971Z,4.36
2018-12-11T05:49:01.962Z,4.34
2018-12-11T05:50:01.938Z,4.32
2018-12-11T05:51:01.959Z,4.24
2018-12-11T05:52:01.924Z,4.26
2018-12-11T05:53:01.917Z,4.29
2018-12-11T05:54:01.893Z,4.28
2018-12-11T05:55:01.890Z,4.33
2018-12-11T05:56:01.876Z,4.19
2018-12-11T05:57:02.348Z,4.19
2018-12-11T05:58:11.647Z,4.21
2018-12-11T06:01:46.579Z,4.22
2018-12-11T06:02:46.536Z,4.21
2018-12-11T06:03:46.564Z,4.21
2018-12-11T06:04:46.646Z,4.26
2018-12-11T06:05:46.514Z,4.15
2018-12-11T06:06:46.495Z,4.16
2018-12-11T06:07:46.465Z,4.18
2018-12-11T06:08:46.464Z,4.15
2018-12-11T06:09:46.442Z,4.08
2018-12-11T06:10:46.442Z,4.18
2018-12-11T06:11:46.420Z,4.22
2018-12-11T06:12:46.445Z,4.18
2018-12-11T06:13:46.412Z,4.16
2018-12-11T06:14:46.416Z,4.12
2018-12-11T06:15:46.379Z,4.01
2018-12-11T06:16:46.378Z,4.15
2018-12-11T06:17:46.383Z,4.08
2018-12-11T06:18:46.353Z,4.10
2018-12-11T06:19:46.351Z,4.03
2018-12-11T06:20:46.338Z,4.04
2018-12-11T06:21:46.359Z,4.12
2018-12-11T06:22:46.334Z,4.18
2018-12-11T06:23:46.328Z,4.06
2018-12-11T06:24:55.001Z,4.01
2018-12-11T06:26:50.763Z,4.01
2018-12-11T06:27:50.737Z,4.03
2018-12-11T06:28:50.736Z,4.06
2018-12-11T06:29:50.713Z,3.96
2018-12-11T06:30:50.724Z,4.00
2018-12-11T06:31:50.689Z,3.97
2018-12-11T06:32:50.734Z,4.00
2018-12-11T06:33:50.691Z,4.00
2018-12-11T06:34:50.672Z,3.98
2018-12-11T06:35:50.661Z,4.06
2018-12-11T06:36:50.665Z,4.03
2018-12-11T06:37:50.702Z,4.03
2018-12-11T06:38:50.620Z,4.15
2018-12-11T06:39:50.609Z,4.08
2018-12-11T06:40:50.597Z,4.12
2018-12-11T06:41:50.652Z,4.07
2018-12-11T06:42:50.574Z,4.10
2018-12-11T06:43:50.608Z,4.15
2018-12-11T06:44:50.570Z,4.10
2018-12-11T06:45:50.542Z,4.14
2018-12-11T06:46:51.959Z,4.21
2018-12-11T06:47:50.562Z,4.12
2018-12-11T06:48:50.503Z,4.07
2018-12-11T06:49:50.502Z,4.12
2018-12-11T06:50:51.169Z,4.15
2018-12-11T06:51:50.529Z,4.15
2018-12-11T06:52:50.468Z,4.14
2018-12-11T06:54:00.621Z,4.19
2018-12-11T06:55:56.722Z,4.16
2018-12-11T06:58:29.266Z,4.12
2018-12-11T06:59:38.742Z,4.21
2018-12-11T07:02:02.813Z,4.16
2018-12-11T07:05:15.198Z,4.08
2018-12-11T07:06:07.722Z,4.10
2018-12-11T07:07:17.096Z,4.16
2018-12-11T07:09:12.030Z,4.21
2018-12-11T07:10:20.703Z,4.21
2018-12-11T07:12:05.497Z,4.18
2018-12-11T07:13:05.352Z,4.21
2018-12-11T07:14:05.362Z,4.24
2018-12-11T07:15:05.460Z,4.18
2018-12-11T07:16:05.328Z,4.22
2018-12-11T07:17:05.319Z,4.16
2018-12-11T07:18:05.280Z,4.26
2018-12-11T07:19:05.288Z,4.32
2018-12-11T07:20:05.296Z,4.36
2018-12-11T07:21:05.362Z,4.26
2018-12-11T07:22:05.288Z,4.34
2018-12-11T07:23:05.233Z,4.29
2018-12-11T07:24:05.232Z,4.36
2018-12-11T07:25:05.216Z,4.39
2018-12-11T07:26:05.226Z,4.40
2018-12-11T07:27:05.261Z,4.42
2018-12-11T07:28:05.217Z,4.34
2018-12-11T07:29:05.206Z,4.36
2018-12-11T07:30:05.181Z,4.39
2018-12-11T07:31:05.189Z,4.26
2018-12-11T07:32:05.170Z,4.34
2018-12-11T07:33:05.178Z,4.39
2018-12-11T07:34:05.115Z,4.33
2018-12-11T07:35:05.113Z,4.37
2018-12-11T07:36:05.095Z,4.40
2018-12-11T07:37:05.086Z,4.37
2018-12-11T07:38:05.139Z,4.37
2018-12-11T07:39:05.140Z,4.42
2018-12-11T07:40:05.130Z,4.40
2018-12-11T07:41:05.041Z,4.39
2018-12-11T07:42:05.049Z,4.43
2018-12-11T07:43:05.067Z,4.43
2018-12-11T07:44:05.042Z,4.40
2018-12-11T07:45:05.012Z,4.36
2018-12-11T07:46:05.029Z,4.42
2018-12-11T07:47:04.985Z,4.43
2018-12-11T07:48:04.975Z,4.37
2018-12-11T07:49:04.994Z,4.40
2018-12-11T07:50:04.980Z,4.47
2018-12-11T07:51:04.940Z,4.44
2018-12-11T07:52:04.949Z,4.54
2018-12-11T07:53:06.459Z,4.50
2018-12-11T07:54:04.933Z,4.55
2018-12-11T07:55:04.959Z,4.46
2018-12-11T07:56:04.895Z,4.50
2018-12-11T07:57:04.907Z,4.50
2018-12-11T07:58:04.890Z,4.46
2018-12-11T07:59:04.875Z,4.46
2018-12-11T08:00:04.847Z,4.54
2018-12-11T08:01:04.855Z,4.54
2018-12-11T08:02:04.848Z,4.50
2018-12-11T08:03:04.818Z,4.50
2018-12-11T08:04:04.816Z,4.52
2018-12-11T08:05:04.804Z,4.51
2018-12-11T08:06:04.782Z,4.52
2018-12-11T08:07:04.780Z,4.57
2018-12-11T08:08:04.797Z,4.55
2018-12-11T08:09:04.763Z,4.52
2018-12-11T08:10:05.252Z,4.67
2018-12-11T08:11:04.722Z,4.64
2018-12-11T08:12:08.258Z,4.73
2018-12-11T08:13:04.706Z,4.73
2018-12-11T08:14:04.754Z,4.65
2018-12-11T08:15:04.693Z,4.69
2018-12-11T08:16:04.710Z,4.77
2018-12-11T08:17:04.697Z,4.79
2018-12-11T08:18:04.658Z,4.77
2018-12-11T08:19:04.703Z,4.67
2018-12-11T08:20:04.670Z,4.83
2018-12-11T08:21:04.622Z,4.86
2018-12-11T08:22:04.655Z,4.86
2018-12-11T08:23:04.670Z,4.88
2018-12-11T08:24:04.609Z,4.83
2018-12-11T08:25:04.616Z,4.92
2018-12-11T08:26:04.585Z,4.94
2018-12-11T08:27:04.642Z,4.83
2018-12-11T08:28:04.558Z,4.91
2018-12-11T08:29:04.559Z,4.83
2018-12-11T08:30:04.538Z,4.84
2018-12-11T08:31:04.533Z,4.83
2018-12-11T08:32:04.527Z,4.83
2018-12-11T08:33:04.563Z,4.79
2018-12-11T08:34:04.494Z,4.89
2018-12-11T08:35:04.518Z,4.84
2018-12-11T08:36:04.493Z,4.86
2018-12-11T08:37:04.496Z,4.91
2018-12-11T08:38:04.457Z,4.88
2018-12-11T08:39:04.470Z,4.86
2018-12-11T08:40:04.529Z,4.92
2018-12-11T08:41:04.461Z,4.91
2018-12-11T08:42:04.496Z,4.92
2018-12-11T08:43:04.421Z,4.94
2018-12-11T08:44:04.430Z,4.79
2018-12-11T08:45:04.440Z,4.91
2018-12-11T08:46:04.380Z,4.96
2018-12-11T08:47:04.413Z,4.96
2018-12-11T08:48:04.379Z,4.96
2018-12-11T08:49:04.361Z,4.96
2018-12-11T08:50:04.379Z,4.98
2018-12-11T08:51:04.339Z,4.99
2018-12-11T08:52:04.322Z,4.91
2018-12-11T08:53:04.309Z,4.92
2018-12-11T08:54:04.358Z,4.98
2018-12-11T08:55:12.998Z,5.14
2018-12-11T08:57:17.839Z,5.12
2018-12-11T08:58:17.443Z,5.10
2018-12-11T09:00:23.253Z,5.20
2018-12-11T09:01:22.976Z,5.09
2018-12-11T09:03:17.815Z,5.20
2018-12-11T09:04:17.686Z,5.25
2018-12-11T09:05:17.685Z,5.37
2018-12-11T09:06:17.684Z,5.37
2018-12-11T09:07:26.507Z,5.35
2018-12-11T09:09:22.176Z,5.31
2018-12-11T09:10:22.131Z,5.34
2018-12-11T09:11:22.139Z,5.28
2018-12-11T09:12:22.135Z,5.43
2018-12-11T09:13:22.101Z,5.37
2018-12-11T09:14:22.095Z,5.35
2018-12-11T09:15:22.066Z,5.35
2018-12-11T09:16:22.061Z,5.28
2018-12-11T09:17:22.101Z,5.34
2018-12-11T09:18:22.045Z,5.34
2018-12-11T09:19:22.133Z,5.27
2018-12-11T09:20:22.010Z,5.38
2018-12-11T09:21:22.059Z,5.34
2018-12-11T09:22:22.098Z,5.28
2018-12-11T09:23:22.026Z,5.32
2018-12-11T09:24:22.030Z,5.31
2018-12-11T09:25:21.963Z,5.45
2018-12-11T09:26:22.070Z,5.43
2018-12-11T09:27:21.948Z,5.46
2018-12-11T09:28:21.976Z,5.38
2018-12-11T09:29:22.006Z,5.38
2018-12-11T09:30:21.947Z,5.31
2018-12-11T09:31:21.903Z,5.38
2018-12-11T09:32:21.922Z,5.40
2018-12-11T09:33:21.937Z,5.48
2018-12-11T09:34:21.954Z,5.43
2018-12-11T09:35:21.887Z,5.45
2018-12-11T09:36:21.886Z,5.35
2018-12-11T09:37:21.924Z,5.37
2018-12-11T09:38:21.911Z,5.38
2018-12-11T09:39:21.854Z,5.32
2018-12-11T09:40:24.549Z,5.34
2018-12-11T09:41:21.854Z,5.23
2018-12-11T09:42:27.772Z,5.28
2018-12-11T09:43:21.808Z,5.37
2018-12-11T09:44:21.853Z,5.32
2018-12-11T09:45:21.771Z,5.32
2018-12-11T09:46:21.866Z,5.37
2018-12-11T09:47:21.798Z,5.35
2018-12-11T09:48:21.774Z,5.34
2018-12-11T09:49:21.769Z,5.38
2018-12-11T09:50:21.811Z,5.43
2018-12-11T09:51:21.756Z,5.46
2018-12-11T09:52:21.750Z,5.40
2018-12-11T09:53:21.752Z,5.41
2018-12-11T09:54:21.772Z,5.35
2018-12-11T09:55:21.802Z,5.35
2018-12-11T09:56:21.831Z,5.37
2018-12-11T09:57:21.660Z,5.49
2018-12-11T09:58:21.684Z,5.49
2018-12-11T09:59:23.559Z,5.34
2018-12-11T10:00:25.755Z,5.38
2018-12-11T10:01:21.648Z,5.32
2018-12-11T10:02:21.655Z,5.37
2018-12-11T10:03:21.661Z,5.32
2018-12-11T10:04:21.622Z,5.35
2018-12-11T10:05:21.603Z,5.31
2018-12-11T10:06:21.585Z,5.34
2018-12-11T10:07:21.600Z,5.37
2018-12-11T10:08:21.556Z,5.40
2018-12-11T10:09:21.699Z,5.34
2018-12-11T10:10:21.593Z,5.43
2018-12-11T10:11:21.533Z,5.23
2018-12-11T10:12:21.567Z,5.31
2018-12-11T10:13:21.600Z,5.31
2018-12-11T10:14:21.577Z,5.32
2018-12-11T10:15:21.538Z,5.28
2018-12-11T10:16:21.548Z,5.27
2018-12-11T10:17:21.498Z,5.27
2018-12-11T10:18:21.499Z,5.27
2018-12-11T10:19:21.546Z,5.20
2018-12-11T10:20:21.470Z,5.25
2018-12-11T10:21:21.494Z,5.31
2018-12-11T10:22:21.489Z,5.37
2018-12-11T10:23:21.438Z,5.20
2018-12-11T10:24:21.414Z,5.27
2018-12-11T10:25:21.417Z,5.34
2018-12-11T10:26:21.443Z,5.31
2018-12-11T10:27:21.381Z,5.35
2018-12-11T10:28:21.362Z,5.37
2018-12-11T10:29:21.376Z,5.46
2018-12-11T10:30:21.359Z,5.43
2018-12-11T10:31:21.399Z,5.27
2018-12-11T10:32:21.371Z,5.37
2018-12-11T10:33:21.333Z,5.28
2018-12-11T10:34:21.395Z,5.20
2018-12-11T10:35:21.373Z,5.27
2018-12-11T10:36:21.295Z,5.27
2018-12-11T10:37:21.343Z,5.25
2018-12-11T10:38:21.332Z,5.31
2018-12-11T10:39:30.252Z,5.25
2018-12-11T10:41:25.897Z,5.27
2018-12-11T10:42:25.952Z,5.23
2018-12-11T10:43:25.839Z,5.23
2018-12-11T10:44:25.971Z,5.13
2018-12-11T10:45:25.782Z,5.12
2018-12-11T10:46:25.751Z,5.14
2018-12-11T10:47:25.691Z,5.13
2018-12-11T10:48:25.719Z,4.98
2018-12-11T10:49:25.725Z,5.13
2018-12-11T10:50:25.724Z,5.12
2018-12-11T10:51:25.695Z,5.07
2018-12-11T10:52:25.657Z,5.09
2018-12-11T10:53:25.623Z,5.13
2018-12-11T10:54:25.717Z,5.30
2018-12-11T10:55:25.690Z,5.20
2018-12-11T10:56:25.669Z,5.28
2018-12-11T10:57:25.652Z,5.28
2018-12-11T10:58:25.617Z,5.25
2018-12-11T10:59:25.569Z,5.23
2018-12-11T11:00:25.580Z,5.22
2018-12-11T11:01:25.584Z,5.09
2018-12-11T11:02:25.594Z,5.20
2018-12-11T11:03:25.560Z,5.27
2018-12-11T11:04:25.529Z,5.34
2018-12-11T11:05:25.508Z,5.28
2018-12-11T11:06:25.532Z,5.30
2018-12-11T11:07:25.501Z,5.27
2018-12-11T11:08:25.537Z,5.28
2018-12-11T11:09:25.524Z,5.28
2018-12-11T11:10:25.556Z,5.13
2018-12-11T11:11:25.546Z,5.19
2018-12-11T11:12:25.477Z,5.16
2018-12-11T11:13:25.449Z,5.14
2018-12-11T11:14:25.455Z,5.09
2018-12-11T11:15:25.433Z,5.13
2018-12-11T11:16:25.454Z,5.17
2018-12-11T11:17:25.394Z,5.20
2018-12-11T11:18:25.430Z,5.16
2018-12-11T11:19:25.435Z,5.13
2018-12-11T11:20:25.392Z,5.13
2018-12-11T11:21:35.075Z,5.22
2018-12-11T11:23:30.145Z,5.46
2018-12-11T11:24:30.016Z,5.32
2018-12-11T11:25:29.879Z,5.30
2018-12-11T11:26:30.330Z,5.31
2018-12-11T11:27:38.732Z,5.19
2018-12-11T11:29:45.513Z,5.32
2018-12-11T11:30:44.725Z,5.30
2018-12-11T11:32:49.119Z,5.12
2018-12-11T11:33:39.836Z,5.30
2018-12-11T11:34:40.039Z,5.25
2018-12-11T11:35:49.924Z,5.37
2018-12-11T11:37:44.331Z,5.45
2018-12-11T11:38:44.407Z,5.48
2018-12-11T11:39:44.464Z,5.37
2018-12-11T11:40:44.169Z,5.53
2018-12-11T11:41:44.260Z,5.45
2018-12-11T11:42:44.171Z,5.49
2018-12-11T11:43:44.182Z,5.38
2018-12-11T11:44:44.133Z,5.52
2018-12-11T11:45:52.976Z,5.64
2018-12-11T11:47:50.880Z,5.60
2018-12-11T11:50:31.134Z,5.46
2018-12-11T11:51:23.165Z,5.34
2018-12-11T11:52:23.465Z,5.53
2018-12-11T11:53:23.372Z,5.43
2018-12-11T11:54:23.169Z,5.34
